sensor_id;sensor_type;location;lat;lon;timestamp;P1;durP1;ratioP1;P2;durP2;ratioP2
20511;SDS011;10414;52.074;5.126;2022-11-15T00:01:19;51.33;;;19.77;;
20511;SDS011;10414;52.074;5.126;2022-11-15T00:03:45;47.42;;;18.83;;
20511;SDS011;10414;52.074;5.126;2022-11-15T00:06:16;48.65;;;18.52;;
20511;SDS011;10414;52.074;5.126;2022-11-15T00:08:43;51.50;;;18.52;;
20511;SDS011;10414;52.074;5.126;2022-11-15T00:11:11;48.03;;;19.85;;
20511;SDS011;10414;52.074;5.126;2022-11-15T00:13:40;48.83;;;18.48;;
20511;SDS011;10414;52.074;5.126;2022-11-15T00:16:08;51.35;;;18.80;;
20511;SDS011;10414;52.074;5.126;2022-11-15T00:18:35;56.60;;;19.48;;
20511;SDS011;10414;52.074;5.126;2022-11-15T00:21:04;47.65;;;18.05;;
20511;SDS011;10414;52.074;5.126;2022-11-15T00:23:32;59.85;;;20.58;;
20511;SDS011;10414;52.074;5.126;2022-11-15T00:25:59;54.33;;;19.65;;
20511;SDS011;10414;52.074;5.126;2022-11-15T00:28:26;53.53;;;19.27;;
20511;SDS011;10414;52.074;5.126;2022-11-15T00:30:59;58.17;;;19.08;;
20511;SDS011;10414;52.074;5.126;2022-11-15T00:33:26;49.30;;;19.48;;
20511;SDS011;10414;52.074;5.126;2022-11-15T00:35:53;54.88;;;20.83;;
20511;SDS011;10414;52.074;5.126;2022-11-15T00:38:29;59.53;;;19.25;;
20511;SDS011;10414;52.074;5.126;2022-11-15T00:40:57;58.72;;;20.33;;
20511;SDS011;10414;52.074;5.126;2022-11-15T00:43:24;68.55;;;21.88;;
20511;SDS011;10414;52.074;5.126;2022-11-15T00:45:51;74.65;;;20.75;;
20511;SDS011;10414;52.074;5.126;2022-11-15T00:48:19;65.18;;;20.92;;
20511;SDS011;10414;52.074;5.126;2022-11-15T00:50:46;55.78;;;19.38;;
20511;SDS011;10414;52.074;5.126;2022-11-15T00:53:14;53.28;;;20.13;;
20511;SDS011;10414;52.074;5.126;2022-11-15T00:55:41;68.25;;;22.23;;
20511;SDS011;10414;52.074;5.126;2022-11-15T00:58:08;72.43;;;22.27;;
20511;SDS011;10414;52.074;5.126;2022-11-15T01:00:35;62.22;;;22.00;;
20511;SDS011;10414;52.074;5.126;2022-11-15T01:03:01;65.85;;;21.08;;
20511;SDS011;10414;52.074;5.126;2022-11-15T01:05:30;59.00;;;20.60;;
20511;SDS011;10414;52.074;5.126;2022-11-15T01:07:57;71.25;;;21.27;;
20511;SDS011;10414;52.074;5.126;2022-11-15T01:10:25;67.05;;;22.15;;
20511;SDS011;10414;52.074;5.126;2022-11-15T01:12:53;68.68;;;22.27;;
20511;SDS011;10414;52.074;5.126;2022-11-15T01:15:20;71.82;;;23.10;;
20511;SDS011;10414;52.074;5.126;2022-11-15T01:17:48;67.82;;;22.55;;
20511;SDS011;10414;52.074;5.126;2022-11-15T01:20:15;66.30;;;22.52;;
20511;SDS011;10414;52.074;5.126;2022-11-15T01:22:43;73.72;;;24.30;;
20511;SDS011;10414;52.074;5.126;2022-11-15T01:25:10;76.32;;;23.50;;
20511;SDS011;10414;52.074;5.126;2022-11-15T01:27:37;74.53;;;23.15;;
20511;SDS011;10414;52.074;5.126;2022-11-15T01:30:05;74.88;;;22.88;;
20511;SDS011;10414;52.074;5.126;2022-11-15T01:32:33;72.38;;;21.73;;
20511;SDS011;10414;52.074;5.126;2022-11-15T01:35:00;65.05;;;22.33;;
20511;SDS011;10414;52.074;5.126;2022-11-15T01:37:27;70.95;;;22.75;;
20511;SDS011;10414;52.074;5.126;2022-11-15T01:39:55;67.30;;;22.95;;
20511;SDS011;10414;52.074;5.126;2022-11-15T01:42:22;68.65;;;24.38;;
20511;SDS011;10414;52.074;5.126;2022-11-15T01:44:49;66.03;;;23.63;;
20511;SDS011;10414;52.074;5.126;2022-11-15T01:47:18;73.53;;;24.05;;
20511;SDS011;10414;52.074;5.126;2022-11-15T01:49:52;66.82;;;21.85;;
20511;SDS011;10414;52.074;5.126;2022-11-15T01:52:24;72.82;;;23.23;;
20511;SDS011;10414;52.074;5.126;2022-11-15T01:54:53;70.45;;;23.80;;
20511;SDS011;10414;52.074;5.126;2022-11-15T01:57:25;72.30;;;23.95;;
20511;SDS011;10414;52.074;5.126;2022-11-15T01:59:52;67.28;;;24.58;;
20511;SDS011;10414;52.074;5.126;2022-11-15T02:02:20;68.60;;;23.02;;
20511;SDS011;10414;52.074;5.126;2022-11-15T02:04:47;64.90;;;22.95;;
20511;SDS011;10414;52.074;5.126;2022-11-15T02:07:15;61.53;;;23.60;;
20511;SDS011;10414;52.074;5.126;2022-11-15T02:09:44;76.55;;;24.77;;
20511;SDS011;10414;52.074;5.126;2022-11-15T02:12:13;63.20;;;22.77;;
20511;SDS011;10414;52.074;5.126;2022-11-15T02:20:20;75.70;;;22.33;;
20511;SDS011;10414;52.074;5.126;2022-11-15T02:26:29;60.10;;;22.90;;
20511;SDS011;10414;52.074;5.126;2022-11-15T02:29:12;66.60;;;25.33;;
20511;SDS011;10414;52.074;5.126;2022-11-15T02:31:47;65.45;;;25.00;;
20511;SDS011;10414;52.074;5.126;2022-11-15T02:34:20;61.78;;;24.58;;
20511;SDS011;10414;52.074;5.126;2022-11-15T02:36:56;74.25;;;23.77;;
20511;SDS011;10414;52.074;5.126;2022-11-15T02:39:30;65.78;;;23.75;;
20511;SDS011;10414;52.074;5.126;2022-11-15T02:42:02;57.97;;;24.30;;
20511;SDS011;10414;52.074;5.126;2022-11-15T02:44:53;67.07;;;24.58;;
20511;SDS011;10414;52.074;5.126;2022-11-15T02:47:24;64.32;;;22.27;;
20511;SDS011;10414;52.074;5.126;2022-11-15T02:49:52;58.45;;;23.58;;
20511;SDS011;10414;52.074;5.126;2022-11-15T02:52:23;64.00;;;24.67;;
20511;SDS011;10414;52.074;5.126;2022-11-15T02:54:54;64.85;;;25.90;;
20511;SDS011;10414;52.074;5.126;2022-11-15T02:57:25;63.30;;;24.40;;
20511;SDS011;10414;52.074;5.126;2022-11-15T03:00:11;59.72;;;23.83;;
20511;SDS011;10414;52.074;5.126;2022-11-15T03:05:41;60.70;;;23.48;;
20511;SDS011;10414;52.074;5.126;2022-11-15T03:08:14;63.25;;;22.83;;
20511;SDS011;10414;52.074;5.126;2022-11-15T03:10:48;66.53;;;24.00;;
20511;SDS011;10414;52.074;5.126;2022-11-15T03:13:24;62.40;;;24.20;;
20511;SDS011;10414;52.074;5.126;2022-11-15T03:15:55;63.15;;;24.90;;
20511;SDS011;10414;52.074;5.126;2022-11-15T03:18:32;62.03;;;23.13;;
20511;SDS011;10414;52.074;5.126;2022-11-15T03:21:00;63.70;;;24.27;;
20511;SDS011;10414;52.074;5.126;2022-11-15T03:23:31;62.58;;;24.63;;
20511;SDS011;10414;52.074;5.126;2022-11-15T03:25:58;61.38;;;24.10;;
20511;SDS011;10414;52.074;5.126;2022-11-15T03:28:27;58.90;;;24.08;;
20511;SDS011;10414;52.074;5.126;2022-11-15T03:30:58;55.72;;;22.77;;
20511;SDS011;10414;52.074;5.126;2022-11-15T03:33:50;60.30;;;23.33;;
20511;SDS011;10414;52.074;5.126;2022-11-15T03:38:47;48.80;;;20.42;;
20511;SDS011;10414;52.074;5.126;2022-11-15T03:41:15;56.47;;;22.75;;
20511;SDS011;10414;52.074;5.126;2022-11-15T03:43:49;51.85;;;21.83;;
20511;SDS011;10414;52.074;5.126;2022-11-15T03:46:22;48.78;;;22.30;;
20511;SDS011;10414;52.074;5.126;2022-11-15T03:48:54;54.28;;;22.85;;
20511;SDS011;10414;52.074;5.126;2022-11-15T03:51:30;49.53;;;21.17;;
20511;SDS011;10414;52.074;5.126;2022-11-15T03:53:58;51.30;;;24.02;;
20511;SDS011;10414;52.074;5.126;2022-11-15T03:56:25;60.67;;;23.55;;
20511;SDS011;10414;52.074;5.126;2022-11-15T03:58:52;46.65;;;21.73;;
20511;SDS011;10414;52.074;5.126;2022-11-15T04:01:19;47.75;;;22.30;;
20511;SDS011;10414;52.074;5.126;2022-11-15T04:03:45;51.28;;;22.88;;
20511;SDS011;10414;52.074;5.126;2022-11-15T04:06:14;50.72;;;21.35;;
20511;SDS011;10414;52.074;5.126;2022-11-15T04:08:41;45.65;;;22.13;;
20511;SDS011;10414;52.074;5.126;2022-11-15T04:11:08;49.08;;;21.85;;
20511;SDS011;10414;52.074;5.126;2022-11-15T04:13:35;47.72;;;22.08;;
20511;SDS011;10414;52.074;5.126;2022-11-15T04:16:02;46.22;;;21.60;;
20511;SDS011;10414;52.074;5.126;2022-11-15T04:18:29;44.67;;;21.52;;
20511;SDS011;10414;52.074;5.126;2022-11-15T04:20:56;50.40;;;22.20;;
20511;SDS011;10414;52.074;5.126;2022-11-15T04:23:38;50.80;;;21.73;;
20511;SDS011;10414;52.074;5.126;2022-11-15T04:26:25;47.75;;;22.25;;
20511;SDS011;10414;52.074;5.126;2022-11-15T04:28:52;51.83;;;22.27;;
20511;SDS011;10414;52.074;5.126;2022-11-15T04:31:36;40.53;;;19.33;;
20511;SDS011;10414;52.074;5.126;2022-11-15T04:34:03;42.83;;;20.17;;
20511;SDS011;10414;52.074;5.126;2022-11-15T04:36:30;49.17;;;21.40;;
20511;SDS011;10414;52.074;5.126;2022-11-15T04:39:17;45.55;;;20.35;;
20511;SDS011;10414;52.074;5.126;2022-11-15T04:41:44;45.28;;;21.05;;
20511;SDS011;10414;52.074;5.126;2022-11-15T04:44:11;37.60;;;19.10;;
20511;SDS011;10414;52.074;5.126;2022-11-15T04:46:38;43.70;;;19.95;;
20511;SDS011;10414;52.074;5.126;2022-11-15T04:49:05;48.53;;;21.20;;
20511;SDS011;10414;52.074;5.126;2022-11-15T04:51:32;45.13;;;20.92;;
20511;SDS011;10414;52.074;5.126;2022-11-15T04:53:59;40.72;;;19.63;;
20511;SDS011;10414;52.074;5.126;2022-11-15T04:56:27;39.17;;;19.70;;
20511;SDS011;10414;52.074;5.126;2022-11-15T04:58:54;45.30;;;19.38;;
20511;SDS011;10414;52.074;5.126;2022-11-15T05:01:21;40.95;;;19.65;;
20511;SDS011;10414;52.074;5.126;2022-11-15T05:03:49;36.50;;;18.05;;
20511;SDS011;10414;52.074;5.126;2022-11-15T05:06:38;43.17;;;19.63;;
20511;SDS011;10414;52.074;5.126;2022-11-15T05:09:05;40.00;;;18.70;;
20511;SDS011;10414;52.074;5.126;2022-11-15T05:11:34;39.92;;;19.63;;
20511;SDS011;10414;52.074;5.126;2022-11-15T05:14:01;41.13;;;20.58;;
20511;SDS011;10414;52.074;5.126;2022-11-15T05:16:28;42.65;;;20.33;;
20511;SDS011;10414;52.074;5.126;2022-11-15T05:18:58;38.72;;;18.88;;
20511;SDS011;10414;52.074;5.126;2022-11-15T05:21:25;39.13;;;19.85;;
20511;SDS011;10414;52.074;5.126;2022-11-15T05:23:52;40.53;;;19.15;;
20511;SDS011;10414;52.074;5.126;2022-11-15T05:26:19;39.10;;;18.90;;
20511;SDS011;10414;52.074;5.126;2022-11-15T05:28:51;37.75;;;18.15;;
20511;SDS011;10414;52.074;5.126;2022-11-15T05:31:19;37.92;;;19.20;;
20511;SDS011;10414;52.074;5.126;2022-11-15T05:33:47;36.50;;;17.27;;
20511;SDS011;10414;52.074;5.126;2022-11-15T05:36:17;34.80;;;18.25;;
20511;SDS011;10414;52.074;5.126;2022-11-15T05:41:14;35.40;;;17.75;;
20511;SDS011;10414;52.074;5.126;2022-11-15T05:43:42;41.38;;;18.02;;
20511;SDS011;10414;52.074;5.126;2022-11-15T05:46:11;34.33;;;15.80;;
20511;SDS011;10414;52.074;5.126;2022-11-15T05:48:40;36.28;;;19.27;;
20511;SDS011;10414;52.074;5.126;2022-11-15T05:51:11;37.88;;;17.85;;
20511;SDS011;10414;52.074;5.126;2022-11-15T05:53:40;35.33;;;18.25;;
20511;SDS011;10414;52.074;5.126;2022-11-15T05:56:07;37.17;;;17.50;;
20511;SDS011;10414;52.074;5.126;2022-11-15T05:58:36;40.85;;;18.33;;
20511;SDS011;10414;52.074;5.126;2022-11-15T06:01:03;36.28;;;17.67;;
20511;SDS011;10414;52.074;5.126;2022-11-15T06:03:33;38.03;;;18.67;;
20511;SDS011;10414;52.074;5.126;2022-11-15T06:06:06;37.80;;;19.42;;
20511;SDS011;10414;52.074;5.126;2022-11-15T06:08:33;39.72;;;18.58;;
20511;SDS011;10414;52.074;5.126;2022-11-15T06:11:04;40.25;;;18.50;;
20511;SDS011;10414;52.074;5.126;2022-11-15T06:13:35;38.85;;;18.90;;
20511;SDS011;10414;52.074;5.126;2022-11-15T06:16:02;36.05;;;17.95;;
20511;SDS011;10414;52.074;5.126;2022-11-15T06:18:36;39.50;;;18.67;;
20511;SDS011;10414;52.074;5.126;2022-11-15T06:21:16;38.22;;;18.48;;
20511;SDS011;10414;52.074;5.126;2022-11-15T06:23:43;39.00;;;18.88;;
20511;SDS011;10414;52.074;5.126;2022-11-15T06:26:12;38.47;;;19.20;;
20511;SDS011;10414;52.074;5.126;2022-11-15T06:28:43;37.92;;;18.27;;
20511;SDS011;10414;52.074;5.126;2022-11-15T06:31:13;37.17;;;17.67;;
20511;SDS011;10414;52.074;5.126;2022-11-15T06:33:47;37.60;;;18.35;;
20511;SDS011;10414;52.074;5.126;2022-11-15T06:36:16;36.90;;;18.73;;
20511;SDS011;10414;52.074;5.126;2022-11-15T06:38:44;36.20;;;17.45;;
20511;SDS011;10414;52.074;5.126;2022-11-15T06:41:13;38.92;;;18.08;;
20511;SDS011;10414;52.074;5.126;2022-11-15T06:43:46;37.42;;;17.92;;
20511;SDS011;10414;52.074;5.126;2022-11-15T06:46:22;35.10;;;18.08;;
20511;SDS011;10414;52.074;5.126;2022-11-15T06:48:53;36.15;;;16.70;;
20511;SDS011;10414;52.074;5.126;2022-11-15T06:51:22;35.88;;;17.60;;
20511;SDS011;10414;52.074;5.126;2022-11-15T06:53:54;37.28;;;18.38;;
20511;SDS011;10414;52.074;5.126;2022-11-15T06:56:22;30.25;;;16.90;;
20511;SDS011;10414;52.074;5.126;2022-11-15T06:58:49;36.20;;;17.25;;
20511;SDS011;10414;52.074;5.126;2022-11-15T07:01:18;35.75;;;17.38;;
20511;SDS011;10414;52.074;5.126;2022-11-15T07:03:47;34.53;;;16.55;;
20511;SDS011;10414;52.074;5.126;2022-11-15T07:06:19;31.27;;;15.55;;
20511;SDS011;10414;52.074;5.126;2022-11-15T07:09:02;37.00;;;16.13;;
20511;SDS011;10414;52.074;5.126;2022-11-15T07:11:43;31.98;;;16.08;;
20511;SDS011;10414;52.074;5.126;2022-11-15T07:14:20;31.77;;;16.23;;
20511;SDS011;10414;52.074;5.126;2022-11-15T07:17:05;33.47;;;15.52;;
20511;SDS011;10414;52.074;5.126;2022-11-15T07:20:12;28.42;;;15.15;;
20511;SDS011;10414;52.074;5.126;2022-11-15T07:22:44;29.63;;;14.77;;
20511;SDS011;10414;52.074;5.126;2022-11-15T07:25:13;31.17;;;15.80;;
20511;SDS011;10414;52.074;5.126;2022-11-15T07:27:53;33.63;;;15.95;;
20511;SDS011;10414;52.074;5.126;2022-11-15T07:30:25;32.47;;;15.38;;
20511;SDS011;10414;52.074;5.126;2022-11-15T07:32:54;29.13;;;15.43;;
20511;SDS011;10414;52.074;5.126;2022-11-15T07:38:57;27.98;;;14.13;;
20511;SDS011;10414;52.074;5.126;2022-11-15T07:42:24;28.25;;;13.07;;
20511;SDS011;10414;52.074;5.126;2022-11-15T07:45:09;26.38;;;12.70;;
20511;SDS011;10414;52.074;5.126;2022-11-15T07:47:54;25.13;;;12.45;;
20511;SDS011;10414;52.074;5.126;2022-11-15T07:50:23;28.23;;;12.68;;
20511;SDS011;10414;52.074;5.126;2022-11-15T07:53:05;25.60;;;12.68;;
20511;SDS011;10414;52.074;5.126;2022-11-15T07:55:35;25.17;;;12.48;;
20511;SDS011;10414;52.074;5.126;2022-11-15T07:58:02;27.27;;;12.32;;
20511;SDS011;10414;52.074;5.126;2022-11-15T08:00:31;20.35;;;12.05;;
20511;SDS011;10414;52.074;5.126;2022-11-15T08:03:02;26.67;;;12.65;;
20511;SDS011;10414;52.074;5.126;2022-11-15T08:05:31;24.30;;;11.55;;
20511;SDS011;10414;52.074;5.126;2022-11-15T08:07:58;21.40;;;11.40;;
20511;SDS011;10414;52.074;5.126;2022-11-15T08:10:25;20.58;;;10.98;;
20511;SDS011;10414;52.074;5.126;2022-11-15T08:12:59;21.60;;;11.25;;
20511;SDS011;10414;52.074;5.126;2022-11-15T08:15:27;22.17;;;11.50;;
20511;SDS011;10414;52.074;5.126;2022-11-15T08:18:01;22.15;;;10.68;;
20511;SDS011;10414;52.074;5.126;2022-11-15T08:20:30;21.52;;;11.35;;
20511;SDS011;10414;52.074;5.126;2022-11-15T08:22:58;23.05;;;11.50;;
20511;SDS011;10414;52.074;5.126;2022-11-15T08:25:26;21.88;;;10.88;;
20511;SDS011;10414;52.074;5.126;2022-11-15T08:27:59;20.67;;;10.55;;
20511;SDS011;10414;52.074;5.126;2022-11-15T08:30:28;24.05;;;10.32;;
20511;SDS011;10414;52.074;5.126;2022-11-15T08:32:57;20.48;;;9.75;;
20511;SDS011;10414;52.074;5.126;2022-11-15T08:35:24;18.10;;;9.77;;
20511;SDS011;10414;52.074;5.126;2022-11-15T08:37:52;23.58;;;10.23;;
20511;SDS011;10414;52.074;5.126;2022-11-15T08:40:19;18.27;;;8.85;;
20511;SDS011;10414;52.074;5.126;2022-11-15T08:42:47;16.23;;;8.50;;
20511;SDS011;10414;52.074;5.126;2022-11-15T08:45:15;16.35;;;8.30;;
20511;SDS011;10414;52.074;5.126;2022-11-15T08:47:42;17.63;;;8.32;;
20511;SDS011;10414;52.074;5.126;2022-11-15T08:50:09;17.60;;;9.05;;
20511;SDS011;10414;52.074;5.126;2022-11-15T08:52:36;18.10;;;7.70;;
20511;SDS011;10414;52.074;5.126;2022-11-15T08:55:04;13.88;;;7.65;;
20511;SDS011;10414;52.074;5.126;2022-11-15T08:57:31;14.90;;;6.57;;
20511;SDS011;10414;52.074;5.126;2022-11-15T08:59:59;17.88;;;6.65;;
20511;SDS011;10414;52.074;5.126;2022-11-15T09:02:27;12.50;;;6.20;;
20511;SDS011;10414;52.074;5.126;2022-11-15T09:04:54;12.52;;;6.47;;
20511;SDS011;10414;52.074;5.126;2022-11-15T09:07:21;15.52;;;6.35;;
20511;SDS011;10414;52.074;5.126;2022-11-15T09:09:49;13.40;;;5.55;;
20511;SDS011;10414;52.074;5.126;2022-11-15T09:12:16;10.63;;;5.50;;
20511;SDS011;10414;52.074;5.126;2022-11-15T09:14:42;14.23;;;6.05;;
20511;SDS011;10414;52.074;5.126;2022-11-15T09:17:09;10.50;;;5.72;;
20511;SDS011;10414;52.074;5.126;2022-11-15T09:19:38;13.32;;;6.35;;
20511;SDS011;10414;52.074;5.126;2022-11-15T09:22:05;13.50;;;6.20;;
20511;SDS011;10414;52.074;5.126;2022-11-15T09:24:32;11.20;;;6.18;;
20511;SDS011;10414;52.074;5.126;2022-11-15T09:26:59;12.02;;;6.13;;
20511;SDS011;10414;52.074;5.126;2022-11-15T09:29:26;11.90;;;6.15;;
20511;SDS011;10414;52.074;5.126;2022-11-15T09:31:53;12.63;;;5.93;;
20511;SDS011;10414;52.074;5.126;2022-11-15T09:34:20;12.23;;;6.05;;
20511;SDS011;10414;52.074;5.126;2022-11-15T09:36:48;13.05;;;5.70;;
20511;SDS011;10414;52.074;5.126;2022-11-15T09:39:15;13.52;;;5.43;;
20511;SDS011;10414;52.074;5.126;2022-11-15T09:41:50;10.68;;;5.13;;
20511;SDS011;10414;52.074;5.126;2022-11-15T09:44:42;12.65;;;5.45;;
20511;SDS011;10414;52.074;5.126;2022-11-15T09:50:31;11.77;;;5.07;;
20511;SDS011;10414;52.074;5.126;2022-11-15T09:53:04;11.23;;;5.50;;
20511;SDS011;10414;52.074;5.126;2022-11-15T09:55:34;9.03;;;5.07;;
20511;SDS011;10414;52.074;5.126;2022-11-15T09:58:10;8.00;;;4.18;;
20511;SDS011;10414;52.074;5.126;2022-11-15T10:00:46;8.15;;;4.75;;
20511;SDS011;10414;52.074;5.126;2022-11-15T10:03:18;9.18;;;4.78;;
20511;SDS011;10414;52.074;5.126;2022-11-15T10:05:52;13.60;;;4.70;;
20511;SDS011;10414;52.074;5.126;2022-11-15T10:08:28;10.60;;;5.80;;
20511;SDS011;10414;52.074;5.126;2022-11-15T10:11:03;10.43;;;4.93;;
20511;SDS011;10414;52.074;5.126;2022-11-15T10:16:04;8.18;;;4.28;;
20511;SDS011;10414;52.074;5.126;2022-11-15T10:18:46;10.63;;;4.55;;
20511;SDS011;10414;52.074;5.126;2022-11-15T10:21:20;8.40;;;4.32;;
20511;SDS011;10414;52.074;5.126;2022-11-15T10:23:51;13.90;;;4.68;;
20511;SDS011;10414;52.074;5.126;2022-11-15T10:26:19;7.85;;;4.35;;
20511;SDS011;10414;52.074;5.126;2022-11-15T10:28:49;7.13;;;4.50;;
20511;SDS011;10414;52.074;5.126;2022-11-15T10:31:21;8.98;;;4.30;;
20511;SDS011;10414;52.074;5.126;2022-11-15T10:33:49;7.07;;;4.15;;
20511;SDS011;10414;52.074;5.126;2022-11-15T10:36:17;11.60;;;4.22;;
20511;SDS011;10414;52.074;5.126;2022-11-15T10:38:56;8.32;;;4.20;;
20511;SDS011;10414;52.074;5.126;2022-11-15T10:41:30;8.70;;;3.92;;
20511;SDS011;10414;52.074;5.126;2022-11-15T10:47:05;8.15;;;4.18;;
20511;SDS011;10414;52.074;5.126;2022-11-15T10:49:58;10.57;;;4.57;;
20511;SDS011;10414;52.074;5.126;2022-11-15T10:52:27;9.52;;;4.10;;
20511;SDS011;10414;52.074;5.126;2022-11-15T10:54:58;10.88;;;3.95;;
20511;SDS011;10414;52.074;5.126;2022-11-15T10:57:30;9.35;;;3.78;;
20511;SDS011;10414;52.074;5.126;2022-11-15T11:00:00;9.30;;;3.72;;
20511;SDS011;10414;52.074;5.126;2022-11-15T11:02:31;6.68;;;2.88;;
20511;SDS011;10414;52.074;5.126;2022-11-15T11:05:00;6.57;;;2.72;;
20511;SDS011;10414;52.074;5.126;2022-11-15T11:07:31;5.45;;;2.50;;
20511;SDS011;10414;52.074;5.126;2022-11-15T11:10:05;6.53;;;2.63;;
20511;SDS011;10414;52.074;5.126;2022-11-15T11:12:43;5.70;;;2.60;;
20511;SDS011;10414;52.074;5.126;2022-11-15T11:15:12;6.80;;;2.45;;
20511;SDS011;10414;52.074;5.126;2022-11-15T11:17:45;7.38;;;2.90;;
20511;SDS011;10414;52.074;5.126;2022-11-15T11:20:24;5.82;;;2.30;;
20511;SDS011;10414;52.074;5.126;2022-11-15T11:23:00;5.60;;;2.17;;
20511;SDS011;10414;52.074;5.126;2022-11-15T11:25:32;7.05;;;2.80;;
20511;SDS011;10414;52.074;5.126;2022-11-15T11:30:56;4.70;;;1.90;;
20511;SDS011;10414;52.074;5.126;2022-11-15T11:33:34;9.10;;;1.90;;
20511;SDS011;10414;52.074;5.126;2022-11-15T11:36:11;5.40;;;2.10;;
20511;SDS011;10414;52.074;5.126;2022-11-15T11:38:50;3.88;;;1.67;;
20511;SDS011;10414;52.074;5.126;2022-11-15T11:44:30;5.57;;;2.08;;
20511;SDS011;10414;52.074;5.126;2022-11-15T11:47:00;6.95;;;2.30;;
20511;SDS011;10414;52.074;5.126;2022-11-15T11:49:31;5.25;;;1.70;;
20511;SDS011;10414;52.074;5.126;2022-11-15T11:52:07;9.02;;;1.90;;
20511;SDS011;10414;52.074;5.126;2022-11-15T11:54:39;7.38;;;2.65;;
20511;SDS011;10414;52.074;5.126;2022-11-15T11:57:17;5.68;;;1.65;;
20511;SDS011;10414;52.074;5.126;2022-11-15T11:59:56;6.30;;;2.00;;
20511;SDS011;10414;52.074;5.126;2022-11-15T12:02:29;7.88;;;1.95;;
20511;SDS011;10414;52.074;5.126;2022-11-15T12:05:03;8.10;;;1.60;;
20511;SDS011;10414;52.074;5.126;2022-11-15T12:07:36;5.68;;;1.50;;
20511;SDS011;10414;52.074;5.126;2022-11-15T12:12:55;8.80;;;1.58;;
20511;SDS011;10414;52.074;5.126;2022-11-15T12:15:43;5.05;;;1.40;;
20511;SDS011;10414;52.074;5.126;2022-11-15T12:18:23;6.05;;;1.67;;
20511;SDS011;10414;52.074;5.126;2022-11-15T12:21:02;7.60;;;1.40;;
20511;SDS011;10414;52.074;5.126;2022-11-15T12:23:38;4.97;;;1.10;;
20511;SDS011;10414;52.074;5.126;2022-11-15T12:26:11;5.50;;;1.48;;
20511;SDS011;10414;52.074;5.126;2022-11-15T12:28:51;6.13;;;1.30;;
20511;SDS011;10414;52.074;5.126;2022-11-15T12:31:30;5.05;;;1.13;;
20511;SDS011;10414;52.074;5.126;2022-11-15T12:34:04;6.32;;;1.20;;
20511;SDS011;10414;52.074;5.126;2022-11-15T12:36:47;5.22;;;1.00;;
20511;SDS011;10414;52.074;5.126;2022-11-15T12:39:18;4.15;;;0.93;;
20511;SDS011;10414;52.074;5.126;2022-11-15T12:42:34;5.93;;;1.00;;
20511;SDS011;10414;52.074;5.126;2022-11-15T12:44:59;5.32;;;1.00;;
20511;SDS011;10414;52.074;5.126;2022-11-15T12:47:27;5.95;;;1.00;;
20511;SDS011;10414;52.074;5.126;2022-11-15T12:49:54;6.88;;;1.38;;
20511;SDS011;10414;52.074;5.126;2022-11-15T12:52:22;4.50;;;1.08;;
20511;SDS011;10414;52.074;5.126;2022-11-15T12:55:02;6.40;;;1.23;;
20511;SDS011;10414;52.074;5.126;2022-11-15T12:57:55;9.95;;;1.60;;
20511;SDS011;10414;52.074;5.126;2022-11-15T13:01:01;5.53;;;1.00;;
20511;SDS011;10414;52.074;5.126;2022-11-15T13:03:28;4.72;;;1.13;;
20511;SDS011;10414;52.074;5.126;2022-11-15T13:09:01;8.02;;;1.23;;
20511;SDS011;10414;52.074;5.126;2022-11-15T13:17:12;7.22;;;1.60;;
20511;SDS011;10414;52.074;5.126;2022-11-15T13:19:52;4.63;;;1.02;;
20511;SDS011;10414;52.074;5.126;2022-11-15T13:22:21;4.45;;;1.55;;
20511;SDS011;10414;52.074;5.126;2022-11-15T13:25:13;4.65;;;1.30;;
20511;SDS011;10414;52.074;5.126;2022-11-15T13:27:44;5.15;;;1.23;;
20511;SDS011;10414;52.074;5.126;2022-11-15T13:30:23;5.72;;;1.10;;
20511;SDS011;10414;52.074;5.126;2022-11-15T13:32:54;7.53;;;1.20;;
20511;SDS011;10414;52.074;5.126;2022-11-15T13:35:23;4.43;;;1.73;;
20511;SDS011;10414;52.074;5.126;2022-11-15T13:37:52;4.80;;;1.10;;
20511;SDS011;10414;52.074;5.126;2022-11-15T13:40:21;5.43;;;1.35;;
20511;SDS011;10414;52.074;5.126;2022-11-15T13:42:50;8.50;;;1.85;;
20511;SDS011;10414;52.074;5.126;2022-11-15T13:45:18;5.22;;;1.42;;
20511;SDS011;10414;52.074;5.126;2022-11-15T13:47:50;7.70;;;1.30;;
20511;SDS011;10414;52.074;5.126;2022-11-15T13:50:21;7.03;;;1.35;;
20511;SDS011;10414;52.074;5.126;2022-11-15T13:52:53;6.40;;;1.50;;
20511;SDS011;10414;52.074;5.126;2022-11-15T13:55:24;5.60;;;1.35;;
20511;SDS011;10414;52.074;5.126;2022-11-15T13:57:53;5.95;;;1.30;;
20511;SDS011;10414;52.074;5.126;2022-11-15T14:00:28;4.93;;;1.63;;
20511;SDS011;10414;52.074;5.126;2022-11-15T14:03:12;5.07;;;1.60;;
20511;SDS011;10414;52.074;5.126;2022-11-15T14:06:02;5.80;;;2.10;;
20511;SDS011;10414;52.074;5.126;2022-11-15T14:08:32;7.38;;;1.70;;
20511;SDS011;10414;52.074;5.126;2022-11-15T14:13:38;5.13;;;1.70;;
20511;SDS011;10414;52.074;5.126;2022-11-15T14:16:14;8.43;;;1.83;;
20511;SDS011;10414;52.074;5.126;2022-11-15T14:18:46;5.13;;;1.80;;
20511;SDS011;10414;52.074;5.126;2022-11-15T14:23:42;4.40;;;1.50;;
20511;SDS011;10414;52.074;5.126;2022-11-15T14:26:25;5.35;;;1.40;;
20511;SDS011;10414;52.074;5.126;2022-11-15T14:28:54;5.85;;;1.60;;
20511;SDS011;10414;52.074;5.126;2022-11-15T14:31:21;4.72;;;1.70;;
20511;SDS011;10414;52.074;5.126;2022-11-15T14:33:50;3.72;;;1.58;;
20511;SDS011;10414;52.074;5.126;2022-11-15T14:36:17;5.95;;;1.67;;
20511;SDS011;10414;52.074;5.126;2022-11-15T14:38:46;8.15;;;1.77;;
20511;SDS011;10414;52.074;5.126;2022-11-15T14:41:17;5.25;;;1.70;;
20511;SDS011;10414;52.074;5.126;2022-11-15T14:43:46;9.23;;;1.60;;
20511;SDS011;10414;52.074;5.126;2022-11-15T14:46:13;5.70;;;1.50;;
20511;SDS011;10414;52.074;5.126;2022-11-15T14:48:40;5.45;;;1.50;;
20511;SDS011;10414;52.074;5.126;2022-11-15T14:51:13;4.82;;;1.50;;
20511;SDS011;10414;52.074;5.126;2022-11-15T14:53:43;7.68;;;1.70;;
20511;SDS011;10414;52.074;5.126;2022-11-15T14:56:11;5.50;;;1.73;;
20511;SDS011;10414;52.074;5.126;2022-11-15T14:58:38;7.20;;;1.70;;
20511;SDS011;10414;52.074;5.126;2022-11-15T15:01:09;4.43;;;1.67;;
20511;SDS011;10414;52.074;5.126;2022-11-15T15:03:39;5.25;;;1.70;;
20511;SDS011;10414;52.074;5.126;2022-11-15T15:06:06;6.57;;;1.70;;
20511;SDS011;10414;52.074;5.126;2022-11-15T15:08:35;9.05;;;1.60;;
20511;SDS011;10414;52.074;5.126;2022-11-15T15:11:03;6.47;;;1.60;;
20511;SDS011;10414;52.074;5.126;2022-11-15T15:13:36;4.65;;;1.48;;
20511;SDS011;10414;52.074;5.126;2022-11-15T15:16:03;8.85;;;1.67;;
20511;SDS011;10414;52.074;5.126;2022-11-15T15:18:31;5.00;;;1.60;;
20511;SDS011;10414;52.074;5.126;2022-11-15T15:20:58;3.83;;;1.52;;
20511;SDS011;10414;52.074;5.126;2022-11-15T15:23:32;6.50;;;1.35;;
20511;SDS011;10414;52.074;5.126;2022-11-15T15:26:01;5.03;;;1.50;;
20511;SDS011;10414;52.074;5.126;2022-11-15T15:28:29;9.93;;;1.90;;
20511;SDS011;10414;52.074;5.126;2022-11-15T15:30:56;4.30;;;1.60;;
20511;SDS011;10414;52.074;5.126;2022-11-15T15:33:23;4.55;;;1.60;;
20511;SDS011;10414;52.074;5.126;2022-11-15T15:35:50;4.20;;;1.58;;
20511;SDS011;10414;52.074;5.126;2022-11-15T15:38:18;4.65;;;1.85;;
20511;SDS011;10414;52.074;5.126;2022-11-15T15:40:44;6.97;;;1.92;;
20511;SDS011;10414;52.074;5.126;2022-11-15T15:43:13;6.00;;;1.73;;
20511;SDS011;10414;52.074;5.126;2022-11-15T15:45:40;4.00;;;1.73;;
20511;SDS011;10414;52.074;5.126;2022-11-15T15:48:10;7.22;;;1.98;;